sensor_id;sensor_type;location;lat;lon;timestamp;temperature;humidity
18779;DHT22;9518;51.720;14.384;2023-06-01T00:01:28;9.40;1.00
18779;DHT22;9518;51.720;14.384;2023-06-01T00:03:59;9.40;1.00
18779;DHT22;9518;51.720;14.384;2023-06-01T00:06:27;9.40;1.00
18779;DHT22;9518;51.720;14.384;2023-06-01T00:08:57;9.40;1.00
18779;DHT22;9518;51.720;14.384;2023-06-01T00:11:25;9.30;96.20
18779;DHT22;9518;51.720;14.384;2023-06-01T00:13:53;9.30;99.90
18779;DHT22;9518;51.720;14.384;2023-06-01T00:16:20;9.30;1.00
18779;DHT22;9518;51.720;14.384;2023-06-01T00:18:50;9.30;1.00
18779;DHT22;9518;51.720;14.384;2023-06-01T00:21:18;9.30;99.90
18779;DHT22;9518;51.720;14.384;2023-06-01T00:23:46;9.30;1.00
18779;DHT22;9518;51.720;14.384;2023-06-01T00:26:15;9.20;99.90
18779;DHT22;9518;51.720;14.384;2023-06-01T00:28:42;9.30;1.00
18779;DHT22;9518;51.720;14.384;2023-06-01T00:31:09;9.20;1.00
18779;DHT22;9518;51.720;14.384;2023-06-01T00:33:36;9.20;99.90
18779;DHT22;9518;51.720;14.384;2023-06-01T00:36:04;9.20;99.90
18779;DHT22;9518;51.720;14.384;2023-06-01T00:38:32;9.20;99.90
18779;DHT22;9518;51.720;14.384;2023-06-01T00:40:59;9.10;1.00
18779;DHT22;9518;51.720;14.384;2023-06-01T00:43:27;9.20;1.00
18779;DHT22;9518;51.720;14.384;2023-06-01T00:45:55;9.10;1.00
18779;DHT22;9518;51.720;14.384;2023-06-01T00:48:22;9.10;1.00
18779;DHT22;9518;51.720;14.384;2023-06-01T00:50:49;9.00;99.90
18779;DHT22;9518;51.720;14.384;2023-06-01T00:53:18;9.00;99.90
18779;DHT22;9518;51.720;14.384;2023-06-01T00:55:46;9.00;99.90
18779;DHT22;9518;51.720;14.384;2023-06-01T00:58:14;9.00;1.00
18779;DHT22;9518;51.720;14.384;2023-06-01T01:00:43;8.90;1.00
18779;DHT22;9518;51.720;14.384;2023-06-01T01:03:14;8.90;1.00
18779;DHT22;9518;51.720;14.384;2023-06-01T01:05:41;8.90;1.00
18779;DHT22;9518;51.720;14.384;2023-06-01T01:08:13;8.90;1.00
18779;DHT22;9518;51.720;14.384;2023-06-01T01:10:45;8.90;1.00
18779;DHT22;9518;51.720;14.384;2023-06-01T01:13:17;8.90;99.90
18779;DHT22;9518;51.720;14.384;2023-06-01T01:15:54;8.90;1.00
18779;DHT22;9518;51.720;14.384;2023-06-01T01:18:25;8.80;1.00
18779;DHT22;9518;51.720;14.384;2023-06-01T01:21:01;8.70;1.00
18779;DHT22;9518;51.720;14.384;2023-06-01T01:23:50;8.70;1.00
18779;DHT22;9518;51.720;14.384;2023-06-01T01:26:29;8.70;1.00
18779;DHT22;9518;51.720;14.384;2023-06-01T01:29:07;8.70;1.00
18779;DHT22;9518;51.720;14.384;2023-06-01T01:31:38;8.70;1.00
18779;DHT22;9518;51.720;14.384;2023-06-01T01:34:08;8.70;99.90
18779;DHT22;9518;51.720;14.384;2023-06-01T01:36:36;8.60;1.00
18779;DHT22;9518;51.720;14.384;2023-06-01T01:39:04;8.60;1.00
18779;DHT22;9518;51.720;14.384;2023-06-01T01:41:32;8.70;1.00
18779;DHT22;9518;51.720;14.384;2023-06-01T01:43:59;8.70;99.90
18779;DHT22;9518;51.720;14.384;2023-06-01T01:46:32;8.70;1.00
18779;DHT22;9518;51.720;14.384;2023-06-01T01:49:07;8.70;1.00
18779;DHT22;9518;51.720;14.384;2023-06-01T01:51:40;8.70;99.90
18779;DHT22;9518;51.720;14.384;2023-06-01T01:54:13;8.60;1.00
18779;DHT22;9518;51.720;14.384;2023-06-01T01:56:40;8.60;64.70
18779;DHT22;9518;51.720;14.384;2023-06-01T01:59:08;8.60;1.00
18779;DHT22;9518;51.720;14.384;2023-06-01T02:01:37;8.50;1.00
18779;DHT22;9518;51.720;14.384;2023-06-01T02:04:09;8.50;99.90
18779;DHT22;9518;51.720;14.384;2023-06-01T02:06:36;8.50;1.00
18779;DHT22;9518;51.720;14.384;2023-06-01T02:09:04;8.50;99.90
18779;DHT22;9518;51.720;14.384;2023-06-01T02:11:33;8.50;91.20
18779;DHT22;9518;51.720;14.384;2023-06-01T02:14:00;8.40;1.00
18779;DHT22;9518;51.720;14.384;2023-06-01T02:16:28;8.40;1.00
18779;DHT22;9518;51.720;14.384;2023-06-01T02:18:56;8.40;1.00
18779;DHT22;9518;51.720;14.384;2023-06-01T02:21:24;8.40;99.90
18779;DHT22;9518;51.720;14.384;2023-06-01T02:23:52;8.40;99.90
18779;DHT22;9518;51.720;14.384;2023-06-01T02:26:19;8.40;2.50
18779;DHT22;9518;51.720;14.384;2023-06-01T02:28:47;8.40;99.90
18779;DHT22;9518;51.720;14.384;2023-06-01T02:31:14;8.40;99.90
18779;DHT22;9518;51.720;14.384;2023-06-01T02:33:41;8.40;1.00
18779;DHT22;9518;51.720;14.384;2023-06-01T02:36:10;8.40;1.00
18779;DHT22;9518;51.720;14.384;2023-06-01T02:38:37;8.40;1.00
18779;DHT22;9518;51.720;14.384;2023-06-01T02:41:08;8.40;99.90
18779;DHT22;9518;51.720;14.384;2023-06-01T02:43:35;8.40;1.00
18779;DHT22;9518;51.720;14.384;2023-06-01T02:46:02;8.50;75.40
18779;DHT22;9518;51.720;14.384;2023-06-01T02:48:31;8.50;1.00
18779;DHT22;9518;51.720;14.384;2023-06-01T02:50:58;8.40;1.00
18779;DHT22;9518;51.720;14.384;2023-06-01T02:53:27;8.50;1.00
18779;DHT22;9518;51.720;14.384;2023-06-01T02:55:54;8.50;99.90
18779;DHT22;9518;51.720;14.384;2023-06-01T02:58:22;8.50;99.90
18779;DHT22;9518;51.720;14.384;2023-06-01T03:00:49;8.50;1.00
18779;DHT22;9518;51.720;14.384;2023-06-01T03:03:17;8.50;1.00
18779;DHT22;9518;51.720;14.384;2023-06-01T03:05:44;8.60;1.00
18779;DHT22;9518;51.720;14.384;2023-06-01T03:08:13;8.60;1.00
18779;DHT22;9518;51.720;14.384;2023-06-01T03:10:44;8.60;1.00
18779;DHT22;9518;51.720;14.384;2023-06-01T03:13:12;8.70;1.00
18779;DHT22;9518;51.720;14.384;2023-06-01T03:15:39;8.70;1.00
18779;DHT22;9518;51.720;14.384;2023-06-01T03:18:06;8.80;1.00
18779;DHT22;9518;51.720;14.384;2023-06-01T03:20:34;8.80;99.90
18779;DHT22;9518;51.720;14.384;2023-06-01T03:23:02;8.90;77.20
18779;DHT22;9518;51.720;14.384;2023-06-01T03:25:29;9.00;1.00
18779;DHT22;9518;51.720;14.384;2023-06-01T03:27:57;9.00;99.90
18779;DHT22;9518;51.720;14.384;2023-06-01T03:30:25;9.10;99.90
18779;DHT22;9518;51.720;14.384;2023-06-01T03:32:52;9.20;99.90
18779;DHT22;9518;51.720;14.384;2023-06-01T03:35:19;9.30;1.00
18779;DHT22;9518;51.720;14.384;2023-06-01T03:37:47;9.40;1.00
18779;DHT22;9518;51.720;14.384;2023-06-01T03:40:14;9.40;99.90
18779;DHT22;9518;51.720;14.384;2023-06-01T03:42:43;9.50;99.90
18779;DHT22;9518;51.720;14.384;2023-06-01T03:45:13;9.60;61.20
18779;DHT22;9518;51.720;14.384;2023-06-01T03:47:41;9.70;1.00
18779;DHT22;9518;51.720;14.384;2023-06-01T03:50:11;9.70;98.20
18779;DHT22;9518;51.720;14.384;2023-06-01T03:52:39;9.90;5.80
18779;DHT22;9518;51.720;14.384;2023-06-01T03:55:07;10.00;1.00
18779;DHT22;9518;51.720;14.384;2023-06-01T03:57:36;10.10;1.00
18779;DHT22;9518;51.720;14.384;2023-06-01T04:00:04;10.10;99.90
18779;DHT22;9518;51.720;14.384;2023-06-01T04:02:47;10.20;99.90
18779;DHT22;9518;51.720;14.384;2023-06-01T04:05:15;10.30;99.90
18779;DHT22;9518;51.720;14.384;2023-06-01T04:07:44;10.40;99.90
18779;DHT22;9518;51.720;14.384;2023-06-01T04:10:12;10.50;99.90
18779;DHT22;9518;51.720;14.384;2023-06-01T04:12:42;10.60;36.50
18779;DHT22;9518;51.720;14.384;2023-06-01T04:15:11;10.60;1.00
18779;DHT22;9518;51.720;14.384;2023-06-01T04:17:39;10.70;44.30
18779;DHT22;9518;51.720;14.384;2023-06-01T04:20:10;10.80;29.50
18779;DHT22;9518;51.720;14.384;2023-06-01T04:22:38;10.90;1.00
18779;DHT22;9518;51.720;14.384;2023-06-01T04:25:06;10.90;1.00
18779;DHT22;9518;51.720;14.384;2023-06-01T04:27:34;11.00;1.00
18779;DHT22;9518;51.720;14.384;2023-06-01T04:30:05;11.10;1.00
18779;DHT22;9518;51.720;14.384;2023-06-01T04:32:34;11.30;1.00
18779;DHT22;9518;51.720;14.384;2023-06-01T04:35:04;11.50;1.00
18779;DHT22;9518;51.720;14.384;2023-06-01T04:37:34;11.90;99.90
18779;DHT22;9518;51.720;14.384;2023-06-01T04:40:02;12.20;99.90
18779;DHT22;9518;51.720;14.384;2023-06-01T04:42:32;12.50;99.90
18779;DHT22;9518;51.720;14.384;2023-06-01T04:45:00;12.90;1.00
18779;DHT22;9518;51.720;14.384;2023-06-01T04:47:30;13.10;1.00
18779;DHT22;9518;51.720;14.384;2023-06-01T04:49:57;13.40;1.00
18779;DHT22;9518;51.720;14.384;2023-06-01T04:52:24;13.50;1.00
18779;DHT22;9518;51.720;14.384;2023-06-01T04:54:53;13.70;1.00
18779;DHT22;9518;51.720;14.384;2023-06-01T04:57:21;13.90;1.00
18779;DHT22;9518;51.720;14.384;2023-06-01T04:59:49;14.10;1.00
18779;DHT22;9518;51.720;14.384;2023-06-01T05:02:17;14.30;1.00
18779;DHT22;9518;51.720;14.384;2023-06-01T05:04:44;14.40;1.00
18779;DHT22;9518;51.720;14.384;2023-06-01T05:07:11;14.50;1.00
18779;DHT22;9518;51.720;14.384;2023-06-01T05:09:38;14.60;1.00
18779;DHT22;9518;51.720;14.384;2023-06-01T05:12:07;14.70;1.00
18779;DHT22;9518;51.720;14.384;2023-06-01T05:14:35;14.90;1.00
18779;DHT22;9518;51.720;14.384;2023-06-01T05:17:07;15.00;1.00
18779;DHT22;9518;51.720;14.384;2023-06-01T05:19:35;15.10;1.00
18779;DHT22;9518;51.720;14.384;2023-06-01T05:22:02;15.20;1.00
18779;DHT22;9518;51.720;14.384;2023-06-01T05:24:29;15.20;1.00
18779;DHT22;9518;51.720;14.384;2023-06-01T05:26:57;15.30;1.00
18779;DHT22;9518;51.720;14.384;2023-06-01T05:29:25;15.50;1.00
18779;DHT22;9518;51.720;14.384;2023-06-01T05:31:52;15.60;1.00
18779;DHT22;9518;51.720;14.384;2023-06-01T05:34:19;15.70;1.00
18779;DHT22;9518;51.720;14.384;2023-06-01T05:36:48;15.80;1.00
18779;DHT22;9518;51.720;14.384;2023-06-01T05:39:17;15.90;1.00
18779;DHT22;9518;51.720;14.384;2023-06-01T05:41:45;15.90;1.00
18779;DHT22;9518;51.720;14.384;2023-06-01T05:44:12;16.10;1.00
18779;DHT22;9518;51.720;14.384;2023-06-01T05:46:40;16.20;1.00
18779;DHT22;9518;51.720;14.384;2023-06-01T05:49:07;16.30;1.00
18779;DHT22;9518;51.720;14.384;2023-06-01T05:51:34;16.40;1.00
18779;DHT22;9518;51.720;14.384;2023-06-01T05:54:03;16.50;1.00
18779;DHT22;9518;51.720;14.384;2023-06-01T05:56:31;16.70;1.00
18779;DHT22;9518;51.720;14.384;2023-06-01T05:58:58;16.80;1.00
18779;DHT22;9518;51.720;14.384;2023-06-01T06:01:25;16.90;1.00
18779;DHT22;9518;51.720;14.384;2023-06-01T06:03:54;17.00;1.00
18779;DHT22;9518;51.720;14.384;2023-06-01T06:06:23;17.00;1.00
18779;DHT22;9518;51.720;14.384;2023-06-01T06:08:51;17.10;1.00
18779;DHT22;9518;51.720;14.384;2023-06-01T06:11:19;17.30;1.00
18779;DHT22;9518;51.720;14.384;2023-06-01T06:13:48;17.40;1.00
18779;DHT22;9518;51.720;14.384;2023-06-01T06:16:16;17.30;1.00
18779;DHT22;9518;51.720;14.384;2023-06-01T06:18:43;17.40;1.00
18779;DHT22;9518;51.720;14.384;2023-06-01T06:21:11;17.50;1.00
18779;DHT22;9518;51.720;14.384;2023-06-01T06:23:39;17.70;1.00
18779;DHT22;9518;51.720;14.384;2023-06-01T06:26:07;17.70;1.00
18779;DHT22;9518;51.720;14.384;2023-06-01T06:28:34;17.90;1.00
18779;DHT22;9518;51.720;14.384;2023-06-01T06:31:01;17.90;1.00
18779;DHT22;9518;51.720;14.384;2023-06-01T06:33:28;17.90;1.00
18779;DHT22;9518;51.720;14.384;2023-06-01T06:35:56;18.00;1.00
18779;DHT22;9518;51.720;14.384;2023-06-01T06:38:24;18.10;1.00
18779;DHT22;9518;51.720;14.384;2023-06-01T06:40:51;18.30;1.00
18779;DHT22;9518;51.720;14.384;2023-06-01T06:43:19;18.40;1.00
18779;DHT22;9518;51.720;14.384;2023-06-01T06:45:46;18.40;1.00
18779;DHT22;9518;51.720;14.384;2023-06-01T06:48:13;18.50;1.00
18779;DHT22;9518;51.720;14.384;2023-06-01T06:50:40;18.80;1.00
18779;DHT22;9518;51.720;14.384;2023-06-01T06:53:12;19.00;1.00
18779;DHT22;9518;51.720;14.384;2023-06-01T06:55:40;19.30;1.00
18779;DHT22;9518;51.720;14.384;2023-06-01T06:58:08;19.50;1.00
18779;DHT22;9518;51.720;14.384;2023-06-01T07:00:36;19.50;1.00
18779;DHT22;9518;51.720;14.384;2023-06-01T07:03:03;19.50;1.00
18779;DHT22;9518;51.720;14.384;2023-06-01T07:05:33;19.60;1.00
18779;DHT22;9518;51.720;14.384;2023-06-01T07:08:01;19.90;1.00
18779;DHT22;9518;51.720;14.384;2023-06-01T07:10:28;20.00;1.00
18779;DHT22;9518;51.720;14.384;2023-06-01T07:12:56;20.00;1.00
18779;DHT22;9518;51.720;14.384;2023-06-01T07:15:24;19.90;1.00
18779;DHT22;9518;51.720;14.384;2023-06-01T07:17:51;19.90;1.00
18779;DHT22;9518;51.720;14.384;2023-06-01T07:20:18;20.10;1.00
18779;DHT22;9518;51.720;14.384;2023-06-01T07:22:45;20.40;1.00
18779;DHT22;9518;51.720;14.384;2023-06-01T07:25:13;20.60;1.00
18779;DHT22;9518;51.720;14.384;2023-06-01T07:27:40;20.30;1.00
18779;DHT22;9518;51.720;14.384;2023-06-01T07:30:10;20.30;1.00
18779;DHT22;9518;51.720;14.384;2023-06-01T07:32:38;20.50;1.00
18779;DHT22;9518;51.720;14.384;2023-06-01T07:35:05;20.70;1.00
18779;DHT22;9518;51.720;14.384;2023-06-01T07:37:33;20.80;1.00
18779;DHT22;9518;51.720;14.384;2023-06-01T07:40:00;21.00;1.00
18779;DHT22;9518;51.720;14.384;2023-06-01T07:42:27;20.90;1.00
18779;DHT22;9518;51.720;14.384;2023-06-01T07:44:54;20.80;1.00
18779;DHT22;9518;51.720;14.384;2023-06-01T07:47:23;20.90;1.00
18779;DHT22;9518;51.720;14.384;2023-06-01T07:49:51;21.20;1.00
18779;DHT22;9518;51.720;14.384;2023-06-01T07:52:18;21.20;99.90
18779;DHT22;9518;51.720;14.384;2023-06-01T07:54:45;21.20;99.90
18779;DHT22;9518;51.720;14.384;2023-06-01T07:57:13;21.40;99.90
18779;DHT22;9518;51.720;14.384;2023-06-01T07:59:40;21.60;99.90
18779;DHT22;9518;51.720;14.384;2023-06-01T08:02:07;21.50;99.90
18779;DHT22;9518;51.720;14.384;2023-06-01T08:04:39;21.50;99.90
18779;DHT22;9518;51.720;14.384;2023-06-01T08:07:06;21.60;99.90
18779;DHT22;9518;51.720;14.384;2023-06-01T08:09:34;21.70;99.90
18779;DHT22;9518;51.720;14.384;2023-06-01T08:12:03;21.90;99.90
18779;DHT22;9518;51.720;14.384;2023-06-01T08:14:31;22.00;99.90
18779;DHT22;9518;51.720;14.384;2023-06-01T08:16:59;21.70;99.90
18779;DHT22;9518;51.720;14.384;2023-06-01T08:19:27;21.80;99.90
18779;DHT22;9518;51.720;14.384;2023-06-01T08:21:57;22.00;99.90
18779;DHT22;9518;51.720;14.384;2023-06-01T08:24:24;22.00;99.90
18779;DHT22;9518;51.720;14.384;2023-06-01T08:26:54;22.00;99.90
18779;DHT22;9518;51.720;14.384;2023-06-01T08:29:23;22.00;99.90
18779;DHT22;9518;51.720;14.384;2023-06-01T08:31:50;22.10;99.90
18779;DHT22;9518;51.720;14.384;2023-06-01T08:34:17;22.20;99.90
18779;DHT22;9518;51.720;14.384;2023-06-01T08:36:45;22.20;99.90
18779;DHT22;9518;51.720;14.384;2023-06-01T08:39:21;22.00;99.90
18779;DHT22;9518;51.720;14.384;2023-06-01T08:41:58;22.20;99.90
18779;DHT22;9518;51.720;14.384;2023-06-01T08:44:27;22.40;99.90
18779;DHT22;9518;51.720;14.384;2023-06-01T08:46:55;22.40;99.90
18779;DHT22;9518;51.720;14.384;2023-06-01T08:49:23;22.40;99.90
18779;DHT22;9518;51.720;14.384;2023-06-01T08:51:53;22.50;99.90
18779;DHT22;9518;51.720;14.384;2023-06-01T08:54:23;22.90;99.90
18779;DHT22;9518;51.720;14.384;2023-06-01T08:56:50;22.80;99.90
18779;DHT22;9518;51.720;14.384;2023-06-01T08:59:18;22.40;99.90
18779;DHT22;9518;51.720;14.384;2023-06-01T09:01:46;22.40;99.90
18779;DHT22;9518;51.720;14.384;2023-06-01T09:04:13;22.80;99.90
18779;DHT22;9518;51.720;14.384;2023-06-01T09:06:41;23.20;99.90
18779;DHT22;9518;51.720;14.384;2023-06-01T09:09:09;23.40;99.90
18779;DHT22;9518;51.720;14.384;2023-06-01T09:11:39;23.30;99.90
18779;DHT22;9518;51.720;14.384;2023-06-01T09:14:20;23.10;99.90
18779;DHT22;9518;51.720;14.384;2023-06-01T09:16:48;22.90;99.90
18779;DHT22;9518;51.720;14.384;2023-06-01T09:19:16;22.70;99.90
18779;DHT22;9518;51.720;14.384;2023-06-01T09:21:55;22.60;99.90
18779;DHT22;9518;51.720;14.384;2023-06-01T09:24:23;22.40;99.90
18779;DHT22;9518;51.720;14.384;2023-06-01T09:26:58;22.40;99.90
18779;DHT22;9518;51.720;14.384;2023-06-01T09:29:25;22.70;99.90
18779;DHT22;9518;51.720;14.384;2023-06-01T09:31:52;23.00;99.90
18779;DHT22;9518;51.720;14.384;2023-06-01T09:34:21;23.20;99.90
18779;DHT22;9518;51.720;14.384;2023-06-01T09:36:49;23.30;99.90
18779;DHT22;9518;51.720;14.384;2023-06-01T09:39:18;23.10;99.90
18779;DHT22;9518;51.720;14.384;2023-06-01T09:41:51;22.90;99.90
18779;DHT22;9518;51.720;14.384;2023-06-01T09:44:28;23.10;99.90
18779;DHT22;9518;51.720;14.384;2023-06-01T09:46:56;23.10;99.90
18779;DHT22;9518;51.720;14.384;2023-06-01T09:49:24;23.20;99.90
18779;DHT22;9518;51.720;14.384;2023-06-01T09:51:52;23.10;99.90
18779;DHT22;9518;51.720;14.384;2023-06-01T09:54:27;23.00;99.90
18779;DHT22;9518;51.720;14.384;2023-06-01T09:56:55;23.10;99.90
18779;DHT22;9518;51.720;14.384;2023-06-01T09:59:23;23.30;99.90
18779;DHT22;9518;51.720;14.384;2023-06-01T10:01:53;23.50;99.90
18779;DHT22;9518;51.720;14.384;2023-06-01T10:04:22;23.50;99.90
18779;DHT22;9518;51.720;14.384;2023-06-01T10:06:50;23.70;99.90
18779;DHT22;9518;51.720;14.384;2023-06-01T10:09:21;23.80;99.90
18779;DHT22;9518;51.720;14.384;2023-06-01T10:11:51;23.60;99.90
18779;DHT22;9518;51.720;14.384;2023-06-01T10:14:21;23.70;99.90
18779;DHT22;9518;51.720;14.384;2023-06-01T10:16:51;24.20;99.90
18779;DHT22;9518;51.720;14.384;2023-06-01T10:19:20;24.60;99.90
18779;DHT22;9518;51.720;14.384;2023-06-01T10:21:47;24.40;99.90
18779;DHT22;9518;51.720;14.384;2023-06-01T10:24:17;23.90;99.90
18779;DHT22;9518;51.720;14.384;2023-06-01T10:26:56;24.30;99.90
18779;DHT22;9518;51.720;14.384;2023-06-01T10:29:28;24.50;99.90
18779;DHT22;9518;51.720;14.384;2023-06-01T10:31:56;24.90;99.90
18779;DHT22;9518;51.720;14.384;2023-06-01T10:34:39;25.00;99.90
18779;DHT22;9518;51.720;14.384;2023-06-01T10:37:17;25.30;99.90
18779;DHT22;9518;51.720;14.384;2023-06-01T10:39:44;25.30;99.90
18779;DHT22;9518;51.720;14.384;2023-06-01T10:42:37;25.00;99.90
18779;DHT22;9518;51.720;14.384;2023-06-01T10:47:48;25.00;99.90
18779;DHT22;9518;51.720;14.384;2023-06-01T10:50:18;25.40;99.90
18779;DHT22;9518;51.720;14.384;2023-06-01T10:52:45;25.60;99.90
18779;DHT22;9518;51.720;14.384;2023-06-01T10:55:24;25.60;99.90
18779;DHT22;9518;51.720;14.384;2023-06-01T10:58:19;25.70;99.90
18779;DHT22;9518;51.720;14.384;2023-06-01T11:00:47;25.60;99.90
18779;DHT22;9518;51.720;14.384;2023-06-01T11:03:15;26.00;99.90
18779;DHT22;9518;51.720;14.384;2023-06-01T11:05:44;26.10;99.90
18779;DHT22;9518;51.720;14.384;2023-06-01T11:08:50;26.60;99.90
18779;DHT22;9518;51.720;14.384;2023-06-01T11:11:18;26.50;99.90
18779;DHT22;9518;51.720;14.384;2023-06-01T11:14:05;26.60;99.90
18779;DHT22;9518;51.720;14.384;2023-06-01T11:16:34;26.40;99.90
18779;DHT22;9518;51.720;14.384;2023-06-01T11:19:02;26.60;99.90
18779;DHT22;9518;51.720;14.384;2023-06-01T11:21:32;26.80;99.90
18779;DHT22;9518;51.720;14.384;2023-06-01T11:24:03;26.90;99.90
18779;DHT22;9518;51.720;14.384;2023-06-01T11:26:32;27.00;99.90
18779;DHT22;9518;51.720;14.384;2023-06-01T11:29:07;27.30;99.90
18779;DHT22;9518;51.720;14.384;2023-06-01T11:31:38;27.50;99.90
18779;DHT22;9518;51.720;14.384;2023-06-01T11:34:06;27.70;99.90
18779;DHT22;9518;51.720;14.384;2023-06-01T11:36:38;28.10;99.90
18779;DHT22;9518;51.720;14.384;2023-06-01T11:39:07;27.30;99.90
18779;DHT22;9518;51.720;14.384;2023-06-01T11:41:42;27.20;99.90
18779;DHT22;9518;51.720;14.384;2023-06-01T11:44:10;27.30;99.90
18779;DHT22;9518;51.720;14.384;2023-06-01T11:46:50;27.60;99.90
18779;DHT22;9518;51.720;14.384;2023-06-01T11:49:17;27.80;99.90
18779;DHT22;9518;51.720;14.384;2023-06-01T11:51:44;27.80;99.90
18779;DHT22;9518;51.720;14.384;2023-06-01T11:54:11;27.90;99.90
18779;DHT22;9518;51.720;14.384;2023-06-01T11:56:38;27.40;99.90
18779;DHT22;9518;51.720;14.384;2023-06-01T11:59:06;27.20;99.90
18779;DHT22;9518;51.720;14.384;2023-06-01T12:01:35;27.20;99.90
18779;DHT22;9518;51.720;14.384;2023-06-01T12:04:05;27.40;99.90
18779;DHT22;9518;51.720;14.384;2023-06-01T12:06:33;27.60;99.90
18779;DHT22;9518;51.720;14.384;2023-06-01T12:09:01;27.90;99.90
18779;DHT22;9518;51.720;14.384;2023-06-01T12:11:28;27.90;99.90
18779;DHT22;9518;51.720;14.384;2023-06-01T12:13:56;28.00;99.90
18779;DHT22;9518;51.720;14.384;2023-06-01T12:16:24;28.10;99.90
18779;DHT22;9518;51.720;14.384;2023-06-01T12:18:52;28.30;99.90
18779;DHT22;9518;51.720;14.384;2023-06-01T12:21:21;28.40;99.90
18779;DHT22;9518;51.720;14.384;2023-06-01T12:23:51;28.20;99.90
18779;DHT22;9518;51.720;14.384;2023-06-01T12:26:18;28.00;99.90
18779;DHT22;9518;51.720;14.384;2023-06-01T12:28:49;28.70;99.90
18779;DHT22;9518;51.720;14.384;2023-06-01T12:31:18;29.00;99.90
18779;DHT22;9518;51.720;14.384;2023-06-01T12:33:46;29.00;99.90
18779;DHT22;9518;51.720;14.384;2023-06-01T12:36:30;28.50;99.90
18779;DHT22;9518;51.720;14.384;2023-06-01T12:38:58;28.40;99.90
18779;DHT22;9518;51.720;14.384;2023-06-01T12:41:26;28.20;99.90
18779;DHT22;9518;51.720;14.384;2023-06-01T12:43:53;28.10;99.90
18779;DHT22;9518;51.720;14.384;2023-06-01T12:46:21;28.20;99.90
18779;DHT22;9518;51.720;14.384;2023-06-01T12:48:48;28.80;99.90
18779;DHT22;9518;51.720;14.384;2023-06-01T12:51:16;29.50;99.90
18779;DHT22;9518;51.720;14.384;2023-06-01T12:53:44;29.70;99.90
18779;DHT22;9518;51.720;14.384;2023-06-01T12:56:11;29.30;99.90
18779;DHT22;9518;51.720;14.384;2023-06-01T12:58:39;29.10;99.90
18779;DHT22;9518;51.720;14.384;2023-06-01T13:01:06;29.30;99.90
18779;DHT22;9518;51.720;14.384;2023-06-01T13:03:33;30.00;99.90
18779;DHT22;9518;51.720;14.384;2023-06-01T13:06:00;30.20;99.90
18779;DHT22;9518;51.720;14.384;2023-06-01T13:08:27;30.50;99.90
18779;DHT22;9518;51.720;14.384;2023-06-01T13:10:56;30.20;99.90
18779;DHT22;9518;51.720;14.384;2023-06-01T13:13:23;30.10;99.90
18779;DHT22;9518;51.720;14.384;2023-06-01T13:15:50;30.30;99.90
18779;DHT22;9518;51.720;14.384;2023-06-01T13:18:17;30.30;99.90
18779;DHT22;9518;51.720;14.384;2023-06-01T13:20:44;30.00;99.90
18779;DHT22;9518;51.720;14.384;2023-06-01T13:23:11;29.80;99.90
18779;DHT22;9518;51.720;14.384;2023-06-01T13:25:38;29.60;99.90
18779;DHT22;9518;51.720;14.384;2023-06-01T13:28:07;29.80;99.90
18779;DHT22;9518;51.720;14.384;2023-06-01T13:30:34;30.20;99.90
18779;DHT22;9518;51.720;14.384;2023-06-01T13:33:02;30.50;99.90
18779;DHT22;9518;51.720;14.384;2023-06-01T13:35:29;31.00;99.90
18779;DHT22;9518;51.720;14.384;2023-06-01T13:37:56;30.40;99.90
18779;DHT22;9518;51.720;14.384;2023-06-01T13:40:23;31.00;99.90
18779;DHT22;9518;51.720;14.384;2023-06-01T13:42:51;31.30;99.90
18779;DHT22;9518;51.720;14.384;2023-06-01T13:45:20;31.80;99.90
18779;DHT22;9518;51.720;14.384;2023-06-01T13:47:47;32.00;99.90
18779;DHT22;9518;51.720;14.384;2023-06-01T13:50:16;31.70;99.90
18779;DHT22;9518;51.720;14.384;2023-06-01T13:52:43;31.20;99.90
18779;DHT22;9518;51.720;14.384;2023-06-01T13:55:11;30.80;99.90
18779;DHT22;9518;51.720;14.384;2023-06-01T13:57:40;30.70;99.90
18779;DHT22;9518;51.720;14.384;2023-06-01T14:00:08;31.40;99.90
18779;DHT22;9518;51.720;14.384;2023-06-01T14:02:37;31.80;99.90
18779;DHT22;9518;51.720;14.384;2023-06-01T14:05:05;32.20;99.90
18779;DHT22;9518;51.720;14.384;2023-06-01T14:07:34;32.60;99.90
18779;DHT22;9518;51.720;14.384;2023-06-01T14:10:01;33.00;99.90
18779;DHT22;9518;51.720;14.384;2023-06-01T14:12:28;33.00;99.90
18779;DHT22;9518;51.720;14.384;2023-06-01T14:14:55;33.00;99.90
18779;DHT22;9518;51.720;14.384;2023-06-01T14:17:22;32.20;99.90
18779;DHT22;9518;51.720;14.384;2023-06-01T14:19:51;32.00;99.90
18779;DHT22;9518;51.720;14.384;2023-06-01T14:22:18;33.00;99.90
18779;DHT22;9518;51.720;14.384;2023-06-01T14:24:45;33.20;99.90
18779;DHT22;9518;51.720;14.384;2023-06-01T14:27:13;33.70;99.90
18779;DHT22;9518;51.720;14.384;2023-06-01T14:29:40;32.30;99.90
18779;DHT22;9518;51.720;14.384;2023-06-01T14:32:08;31.80;99.90
18779;DHT22;9518;51.720;14.384;2023-06-01T14:34:35;31.90;99.90
18779;DHT22;9518;51.720;14.384;2023-06-01T14:37:04;31.80;99.90
18779;DHT22;9518;51.720;14.384;2023-06-01T14:39:32;31.60;99.90
18779;DHT22;9518;51.720;14.384;2023-06-01T14:41:59;31.70;99.90
18779;DHT22;9518;51.720;14.384;2023-06-01T14:44:27;32.20;99.90
18779;DHT22;9518;51.720;14.384;2023-06-01T14:46:54;32.70;99.90
18779;DHT22;9518;51.720;14.384;2023-06-01T14:49:21;33.00;99.90
18779;DHT22;9518;51.720;14.384;2023-06-01T14:51:48;32.80;99.90
18779;DHT22;9518;51.720;14.384;2023-06-01T14:54:16;32.60;99.90
18779;DHT22;9518;51.720;14.384;2023-06-01T14:56:43;32.80;99.90
18779;DHT22;9518;51.720;14.384;2023-06-01T14:59:10;33.00;99.90
18779;DHT22;9518;51.720;14.384;2023-06-01T15:01:37;33.90;99.90
18779;DHT22;9518;51.720;14.384;2023-06-01T15:04:06;34.40;99.90
18779;DHT22;9518;51.720;14.384;2023-06-01T15:06:33;34.30;99.90
18779;DHT22;9518;51.720;14.384;2023-06-01T15:09:02;34.50;99.90
18779;DHT22;9518;51.720;14.384;2023-06-01T15:11:30;34.10;99.90
18779;DHT22;9518;51.720;14.384;2023-06-01T15:13:58;34.10;99.90
18779;DHT22;9518;51.720;14.384;2023-06-01T15:16:25;33.60;99.90
18779;DHT22;9518;51.720;14.384;2023-06-01T15:18:53;34.50;99.90
18779;DHT22;9518;51.720;14.384;2023-06-01T15:21:20;34.20;99.90
18779;DHT22;9518;51.720;14.384;2023-06-01T15:23:47;34.10;99.90
18779;DHT22;9518;51.720;14.384;2023-06-01T15:26:14;34.80;99.90
18779;DHT22;9518;51.720;14.384;2023-06-01T15:28:43;34.50;99.90
18779;DHT22;9518;51.720;14.384;2023-06-01T15:31:10;34.10;99.90
18779;DHT22;9518;51.720;14.384;2023-06-01T15:33:37;33.30;99.90
18779;DHT22;9518;51.720;14.384;2023-06-01T15:36:04;33.90;99.90
18779;DHT22;9518;51.720;14.384;2023-06-01T15:38:31;33.80;99.90
18779;DHT22;9518;51.720;14.384;2023-06-01T15:41:01;33.30;99.90
18779;DHT22;9518;51.720;14.384;2023-06-01T15:43:28;33.10;99.90
18779;DHT22;9518;51.720;14.384;2023-06-01T15:45:56;33.80;99.90
18779;DHT22;9518;51.720;14.384;2023-06-01T15:48:23;34.10;99.90
18779;DHT22;9518;51.720;14.384;2023-06-01T15:50:51;34.10;99.90
18779;DHT22;9518;51.720;14.384;2023-06-01T15:53:18;33.50;99.90